Time;durP1;ratioP1;P1;durP2;ratioP2;P2;SDS_P1;SDS_P2;PMS_P1;PMS_P2;Temp;Humidity;BMP_temperature;BMP_pressure;BME280_temperature;BME280_humidity;BME280_pressure;Samples;Min_cycle;Max_cycle;Signal;HPM_P1;HPM_P2
2023/08/28 00:00:04;;;;;;;2.22;2.00;;;;;;;;;;4954842;28;20205;-73
2023/08/28 00:02:30;;;;;;;2.55;2.45;;;;;;;;;;4954250;28;20224;-73
2023/08/28 00:04:57;;;;;;;7.45;2.22;;;;;;;;;;4955470;28;20204;-73
2023/08/28 00:07:25;;;;;;;2.10;2.00;;;;;;;;;;4954984;28;20212;-73
2023/08/28 00:09:51;;;;;;;5.78;2.05;;;;;;;;;;4954328;28;20207;-73
2023/08/28 00:12:18;;;;;;;6.70;2.00;;;;;;;;;;4953871;28;20755;-73
2023/08/28 00:14:44;;;;;;;4.70;2.10;;;;;;;;;;4954240;28;20615;-73
2023/08/28 00:17:10;;;;;;;2.03;1.98;;;;;;;;;;4954316;28;20208;-73
2023/08/28 00:19:36;;;;;;;3.03;2.20;;;;;;;;;;4954093;28;20276;-73
2023/08/28 00:22:03;;;;;;;2.42;2.33;;;;;;;;;;4953779;28;20220;-73
2023/08/28 00:24:30;;;;;;;5.60;2.30;;;;;;;;;;4954246;28;20200;-73
2023/08/28 00:26:57;;;;;;;2.47;2.15;;;;;;;;;;4954193;28;20209;-72
2023/08/28 00:29:23;;;;;;;4.47;2.25;;;;;;;;;;4954256;28;20212;-72
2023/08/28 00:31:49;;;;;;;2.38;2.00;;;;;;;;;;4954014;28;20224;-73
2023/08/28 00:34:15;;;;;;;2.42;2.13;;;;;;;;;;4953834;28;20228;-73
2023/08/28 00:36:42;;;;;;;4.15;2.10;;;;;;;;;;4953911;28;20208;-73
2023/08/28 00:39:08;;;;;;;4.10;2.40;;;;;;;;;;4954009;28;20201;-73
2023/08/28 00:41:37;;;;;;;2.63;2.42;;;;;;;;;;4953714;28;20232;-73
2023/08/28 00:44:03;;;;;;;7.35;2.60;;;;;;;;;;4953732;28;20295;-73
2023/08/28 00:46:30;;;;;;;6.32;2.33;;;;;;;;;;4953822;28;20235;-73
2023/08/28 00:48:56;;;;;;;5.63;2.17;;;;;;;;;;4953581;28;20204;-73
2023/08/28 00:51:23;;;;;;;4.18;2.70;;;;;;;;;;4953262;28;20621;-73
2023/08/28 00:53:49;;;;;;;4.05;2.13;;;;;;;;;;4953785;28;20204;-73
2023/08/28 00:56:15;;;;;;;2.60;2.40;;;;;;;;;;4996398;23;20227;-71
2023/08/28 00:58:43;;;;;;;6.85;2.28;;;;;;;;;;4980992;28;20229;-71
2023/08/28 01:01:09;;;;;;;2.47;2.38;;;;;;;;;;4982508;28;20738;-71
2023/08/28 01:03:36;;;;;;;2.50;2.30;;;;;;;;;;4983061;28;20207;-71
2023/08/28 01:06:07;;;;;;;6.38;2.50;;;;;;;;;;4982722;28;20575;-71
2023/08/28 01:08:37;;;;;;;5.43;2.25;;;;;;;;;;4980974;28;20200;-71
2023/08/28 01:11:08;;;;;;;2.65;2.40;;;;;;;;;;4981583;28;20224;-71
2023/08/28 01:13:39;;;;;;;2.30;2.20;;;;;;;;;;4979039;28;20207;-71
2023/08/28 01:16:07;;;;;;;3.20;2.50;;;;;;;;;;4981864;28;20268;-71
2023/08/28 01:18:34;;;;;;;6.43;2.20;;;;;;;;;;4983975;28;20206;-71
2023/08/28 01:21:01;;;;;;;2.95;2.72;;;;;;;;;;4983679;28;20267;-72
2023/08/28 01:23:28;;;;;;;4.45;2.45;;;;;;;;;;4984038;28;20223;-71
2023/08/28 01:25:56;;;;;;;3.95;2.70;;;;;;;;;;4983860;28;20223;-70
2023/08/28 01:28:24;;;;;;;3.30;2.85;;;;;;;;;;4983645;28;20195;-71
2023/08/28 01:30:51;;;;;;;2.45;1.98;;;;;;;;;;4983406;28;20215;-71
2023/08/28 01:33:17;;;;;;;2.40;2.30;;;;;;;;;;4980874;28;20668;-71
2023/08/28 01:35:45;;;;;;;6.28;2.05;;;;;;;;;;4980615;28;20199;-71
2023/08/28 01:38:14;;;;;;;6.80;2.58;;;;;;;;;;4980679;28;20668;-71
2023/08/28 01:40:44;;;;;;;4.10;2.60;;;;;;;;;;4980242;28;20200;-71
2023/08/28 01:43:12;;;;;;;4.70;2.47;;;;;;;;;;4981882;28;20593;-71
2023/08/28 01:45:39;;;;;;;2.97;2.67;;;;;;;;;;4986336;28;20216;-71
2023/08/28 01:48:05;;;;;;;3.35;2.53;;;;;;;;;;4981209;28;20204;-71
2023/08/28 01:50:31;;;;;;;3.13;2.67;;;;;;;;;;4983466;28;20203;-71
2023/08/28 01:52:58;;;;;;;5.75;2.70;;;;;;;;;;4983238;28;20583;-71
2023/08/28 01:55:34;;;;;;;3.20;2.67;;;;;;;;;;4980155;28;20203;-71
2023/08/28 01:58:01;;;;;;;3.90;2.50;;;;;;;;;;4980889;28;20237;-70
2023/08/28 02:00:28;;;;;;;2.92;2.40;;;;;;;;;;4983417;28;20206;-71
2023/08/28 02:02:55;;;;;;;2.60;2.38;;;;;;;;;;4983239;28;20207;-71
2023/08/28 02:05:21;;;;;;;5.63;2.42;;;;;;;;;;4980553;28;20247;-70
2023/08/28 02:07:47;;;;;;;4.07;2.17;;;;;;;;;;4980214;28;20204;-71
2023/08/28 02:10:13;;;;;;;2.25;2.15;;;;;;;;;;4982258;28;20204;-70
2023/08/28 02:12:40;;;;;;;2.20;2.00;;;;;;;;;;4983269;28;20234;-70
2023/08/28 02:15:06;;;;;;;2.28;1.95;;;;;;;;;;4984805;28;20199;-70
2023/08/28 02:17:34;;;;;;;2.28;2.08;;;;;;;;;;4983628;28;20211;-71
2023/08/28 02:20:00;;;;;;;6.13;2.28;;;;;;;;;;4983396;28;20691;-71
2023/08/28 02:22:26;;;;;;;2.28;2.10;;;;;;;;;;4986508;28;20223;-71
2023/08/28 02:24:53;;;;;;;4.68;2.53;;;;;;;;;;4987895;28;20296;-71
2023/08/28 02:27:19;;;;;;;6.53;2.20;;;;;;;;;;4985896;28;20209;-72
2023/08/28 02:29:45;;;;;;;2.55;2.15;;;;;;;;;;4986709;28;20199;-71
2023/08/28 02:32:11;;;;;;;5.10;2.30;;;;;;;;;;4984785;28;20599;-71
2023/08/28 02:34:39;;;;;;;3.65;2.10;;;;;;;;;;4983380;28;20223;-71
2023/08/28 02:37:05;;;;;;;2.85;2.17;;;;;;;;;;4983540;28;20636;-71
2023/08/28 02:39:32;;;;;;;5.47;2.28;;;;;;;;;;4986382;28;20203;-71
2023/08/28 02:41:58;;;;;;;2.65;2.08;;;;;;;;;;4986386;28;20238;-71
2023/08/28 02:44:24;;;;;;;2.33;2.22;;;;;;;;;;4983361;28;20499;-72
2023/08/28 02:46:50;;;;;;;2.10;2.00;;;;;;;;;;4982920;28;20207;-71
2023/08/28 02:49:17;;;;;;;9.80;2.10;;;;;;;;;;4984729;28;20693;-71
2023/08/28 02:51:44;;;;;;;2.65;2.45;;;;;;;;;;4985740;28;20261;-72
2023/08/28 02:54:11;;;;;;;4.70;2.17;;;;;;;;;;4985071;28;20214;-71
2023/08/28 02:56:38;;;;;;;3.20;2.10;;;;;;;;;;4982770;28;20672;-71
2023/08/28 02:59:05;;;;;;;2.72;1.95;;;;;;;;;;4982852;28;20215;-70
2023/08/28 03:01:34;;;;;;;2.35;2.17;;;;;;;;;;4985544;28;20704;-71
2023/08/28 03:04:00;;;;;;;4.32;1.90;;;;;;;;;;4985920;28;20246;-71
2023/08/28 03:06:27;;;;;;;6.20;2.30;;;;;;;;;;4982665;28;20722;-71
2023/08/28 03:08:54;;;;;;;5.22;2.08;;;;;;;;;;4982490;28;20204;-71
2023/08/28 03:11:20;;;;;;;3.25;2.10;;;;;;;;;;4984378;28;20294;-71
2023/08/28 03:13:47;;;;;;;4.78;2.17;;;;;;;;;;4985860;28;20199;-71
2023/08/28 03:16:13;;;;;;;3.65;1.75;;;;;;;;;;4984956;28;20206;-71
2023/08/28 03:18:39;;;;;;;2.47;2.28;;;;;;;;;;4982748;28;20227;-71
2023/08/28 03:21:06;;;;;;;2.40;2.20;;;;;;;;;;4982056;28;20738;-71
2023/08/28 03:23:32;;;;;;;4.57;2.63;;;;;;;;;;4985957;28;20200;-71
2023/08/28 03:26:00;;;;;;;4.45;2.28;;;;;;;;;;4984613;28;20219;-71
2023/08/28 03:28:26;;;;;;;2.42;2.22;;;;;;;;;;4983042;28;20242;-71
2023/08/28 03:30:55;;;;;;;2.42;2.33;;;;;;;;;;4982029;28;20226;-71
2023/08/28 03:33:22;;;;;;;3.35;2.67;;;;;;;;;;4984166;28;20204;-71
2023/08/28 03:35:48;;;;;;;6.68;2.75;;;;;;;;;;4985615;28;20202;-71
2023/08/28 03:38:14;;;;;;;2.70;2.60;;;;;;;;;;4984671;28;20203;-71
2023/08/28 03:40:40;;;;;;;6.10;2.70;;;;;;;;;;4982021;28;20214;-71
2023/08/28 03:43:08;;;;;;;3.22;2.90;;;;;;;;;;4982317;28;20208;-71
2023/08/28 03:45:35;;;;;;;3.75;2.60;;;;;;;;;;4982001;28;20216;-71
2023/08/28 03:48:01;;;;;;;4.25;2.80;;;;;;;;;;4982319;28;20212;-71
2023/08/28 03:50:29;;;;;;;3.10;2.80;;;;;;;;;;4984860;28;20211;-71
2023/08/28 03:52:56;;;;;;;2.63;2.53;;;;;;;;;;4984978;28;20203;-71
2023/08/28 03:55:22;;;;;;;5.20;3.08;;;;;;;;;;4983378;28;20226;-70
2023/08/28 03:57:48;;;;;;;2.80;2.60;;;;;;;;;;4981928;28;20211;-71
2023/08/28 04:00:18;;;;;;;2.58;2.33;;;;;;;;;;4982454;28;20207;-71
2023/08/28 04:02:45;;;;;;;2.22;2.20;;;;;;;;;;4984543;28;20223;-71
2023/08/28 04:05:11;;;;;;;3.95;3.05;;;;;;;;;;4984679;28;20710;-71
2023/08/28 04:07:37;;;;;;;3.10;2.80;;;;;;;;;;4985490;28;20207;-71
2023/08/28 04:10:04;;;;;;;3.53;3.00;;;;;;;;;;4985069;28;20203;-71
2023/08/28 04:12:30;;;;;;;5.93;3.13;;;;;;;;;;4990303;28;20238;-71
2023/08/28 04:14:57;;;;;;;4.05;2.97;;;;;;;;;;4981548;28;20215;-71
2023/08/28 04:17:25;;;;;;;4.43;3.10;;;;;;;;;;4983083;28;20207;-65
2023/08/28 04:19:52;;;;;;;3.50;3.20;;;;;;;;;;4984743;28;20202;-65
2023/08/28 04:22:18;;;;;;;5.22;3.30;;;;;;;;;;4983574;28;20617;-65
2023/08/28 04:24:45;;;;;;;6.18;3.17;;;;;;;;;;4981334;28;20200;-65
2023/08/28 04:27:11;;;;;;;2.95;2.85;;;;;;;;;;4981121;28;20221;-65
2023/08/28 04:29:37;;;;;;;3.70;3.08;;;;;;;;;;4981262;28;20200;-65
2023/08/28 04:32:04;;;;;;;3.35;3.03;;;;;;;;;;4981165;28;20231;-65
2023/08/28 04:34:32;;;;;;;2.78;2.53;;;;;;;;;;4983779;28;20211;-65
2023/08/28 04:36:58;;;;;;;2.25;2.15;;;;;;;;;;4984624;28;20203;-65
2023/08/28 04:39:24;;;;;;;5.30;2.40;;;;;;;;;;4982915;28;20207;-64
2023/08/28 04:41:52;;;;;;;2.28;1.98;;;;;;;;;;4980533;28;20731;-64
2023/08/28 04:44:18;;;;;;;3.05;2.20;;;;;;;;;;4981751;28;20573;-65
2023/08/28 04:46:45;;;;;;;2.05;2.03;;;;;;;;;;4984487;28;20218;-65
2023/08/28 04:49:11;;;;;;;3.75;2.25;;;;;;;;;;4984633;28;20207;-65
2023/08/28 04:51:38;;;;;;;1.92;1.83;;;;;;;;;;4980859;28;20224;-64
2023/08/28 04:54:05;;;;;;;3.50;2.00;;;;;;;;;;4980927;28;20700;-64
2023/08/28 04:56:31;;;;;;;3.55;2.05;;;;;;;;;;4982931;28;20204;-64
2023/08/28 04:58:57;;;;;;;2.20;1.75;;;;;;;;;;4984412;28;20203;-64
2023/08/28 05:01:24;;;;;;;6.82;1.90;;;;;;;;;;4982852;28;20226;-65
2023/08/28 05:03:50;;;;;;;3.45;1.48;;;;;;;;;;4981658;28;20219;-65
2023/08/28 05:06:16;;;;;;;4.80;1.60;;;;;;;;;;4981642;28;20274;-65
2023/08/28 05:08:44;;;;;;;4.07;1.60;;;;;;;;;;4988895;28;20211;-65
2023/08/28 05:11:10;;;;;;;1.95;1.77;;;;;;;;;;4980566;28;20727;-65
2023/08/28 05:13:36;;;;;;;3.50;1.67;;;;;;;;;;4983079;28;20624;-65
2023/08/28 05:16:03;;;;;;;2.30;1.80;;;;;;;;;;4984364;28;20199;-65
2023/08/28 05:18:29;;;;;;;2.35;2.15;;;;;;;;;;4982406;28;20210;-65
2023/08/28 05:20:56;;;;;;;2.42;2.22;;;;;;;;;;4980436;28;20224;-65
2023/08/28 05:23:25;;;;;;;1.83;1.60;;;;;;;;;;4981395;28;20211;-65
2023/08/28 05:25:52;;;;;;;1.85;1.60;;;;;;;;;;4983804;28;20265;-65
2023/08/28 05:28:19;;;;;;;2.97;2.08;;;;;;;;;;4983790;28;20229;-65
2023/08/28 05:30:45;;;;;;;4.25;1.98;;;;;;;;;;4980623;28;20199;-65
2023/08/28 05:33:11;;;;;;;3.08;2.03;;;;;;;;;;4980694;28;20227;-65
2023/08/28 05:35:38;;;;;;;4.45;2.03;;;;;;;;;;4982893;28;20627;-64
2023/08/28 05:38:04;;;;;;;4.25;2.13;;;;;;;;;;4983712;28;20272;-64
2023/08/28 05:40:31;;;;;;;2.88;2.50;;;;;;;;;;4981788;28;20667;-64
2023/08/28 05:42:58;;;;;;;2.90;2.10;;;;;;;;;;4980399;28;20208;-65
2023/08/28 05:45:25;;;;;;;2.10;2.00;;;;;;;;;;4981072;28;20204;-65
2023/08/28 05:47:51;;;;;;;3.78;2.33;;;;;;;;;;4983927;28;20206;-65
2023/08/28 05:50:18;;;;;;;2.65;2.05;;;;;;;;;;4986726;28;20206;-65
2023/08/28 05:52:44;;;;;;;2.63;2.42;;;;;;;;;;4983901;28;20727;-64
2023/08/28 05:55:11;;;;;;;2.20;2.10;;;;;;;;;;4984030;28;20220;-65
2023/08/28 05:57:37;;;;;;;2.15;2.05;;;;;;;;;;4986219;28;20718;-65
2023/08/28 06:00:05;;;;;;;4.07;2.13;;;;;;;;;;4987882;28;20647;-64
2023/08/28 06:02:31;;;;;;;4.35;2.10;;;;;;;;;;4985880;28;20265;-64
2023/08/28 06:04:58;;;;;;;4.88;2.17;;;;;;;;;;4984008;28;20208;-65
2023/08/28 06:07:24;;;;;;;2.50;2.30;;;;;;;;;;4984082;28;20236;-64
2023/08/28 06:09:50;;;;;;;2.58;2.47;;;;;;;;;;4987250;28;20206;-64
2023/08/28 06:12:16;;;;;;;2.92;2.75;;;;;;;;;;4986885;28;20223;-64
2023/08/28 06:14:42;;;;;;;4.03;2.25;;;;;;;;;;4984430;28;20230;-64
2023/08/28 06:17:10;;;;;;;4.53;2.80;;;;;;;;;;4983872;28;20206;-64
2023/08/28 06:19:36;;;;;;;8.82;3.10;;;;;;;;;;4985475;28;20208;-64
2023/08/28 06:22:04;;;;;;;4.45;2.88;;;;;;;;;;4986463;28;20287;-64
2023/08/28 06:24:31;;;;;;;3.83;2.65;;;;;;;;;;4985914;28;20203;-63
2023/08/28 06:26:57;;;;;;;2.75;2.53;;;;;;;;;;4980489;28;20805;-64
2023/08/28 06:29:24;;;;;;;3.60;3.30;;;;;;;;;;4988688;28;20219;-64
2023/08/28 06:31:50;;;;;;;3.97;3.00;;;;;;;;;;4980442;28;20471;-64
2023/08/28 06:34:18;;;;;;;8.18;3.08;;;;;;;;;;4981136;28;20218;-64
2023/08/28 06:36:45;;;;;;;3.72;3.42;;;;;;;;;;4978141;28;20703;-63
2023/08/28 06:39:11;;;;;;;4.50;3.88;;;;;;;;;;4977676;28;20208;-64
2023/08/28 06:41:38;;;;;;;4.88;4.03;;;;;;;;;;4978709;28;20228;-62
2023/08/28 06:44:04;;;;;;;5.50;4.13;;;;;;;;;;4975907;28;20238;-63
2023/08/28 06:46:31;;;;;;;4.45;4.15;;;;;;;;;;4970811;28;20314;-63
2023/08/28 06:48:57;;;;;;;5.38;3.85;;;;;;;;;;4980945;28;20905;-63
2023/08/28 06:51:25;;;;;;;4.38;3.95;;;;;;;;;;4972343;28;20227;-63
2023/08/28 06:53:51;;;;;;;4.32;4.00;;;;;;;;;;4969080;28;20614;-63
2023/08/28 06:56:19;;;;;;;4.43;4.10;;;;;;;;;;4970250;28;20208;-63
2023/08/28 06:58:45;;;;;;;4.85;4.43;;;;;;;;;;4974645;28;20655;-64
2023/08/28 07:01:11;;;;;;;4.30;4.00;;;;;;;;;;4966691;28;20253;-64
2023/08/28 07:03:37;;;;;;;5.25;4.75;;;;;;;;;;4974702;28;20215;-64
2023/08/28 07:06:04;;;;;;;5.82;3.97;;;;;;;;;;4970545;28;20691;-64
2023/08/28 07:08:31;;;;;;;4.57;4.28;;;;;;;;;;4970004;28;20684;-64
2023/08/28 07:10:58;;;;;;;6.00;4.45;;;;;;;;;;4984688;28;20246;-64
2023/08/28 07:13:24;;;;;;;4.45;4.15;;;;;;;;;;4976541;28;20238;-64
2023/08/28 07:15:59;;;;;;;4.53;4.13;;;;;;;;;;4971342;28;20691;-65
2023/08/28 07:18:25;;;;;;;4.13;3.88;;;;;;;;;;4973596;28;20215;-64
2023/08/28 07:20:52;;;;;;;4.05;3.85;;;;;;;;;;4973576;28;20227;-63
2023/08/28 07:23:18;;;;;;;6.28;4.28;;;;;;;;;;4979828;28;20219;-64
2023/08/28 07:25:46;;;;;;;4.43;4.03;;;;;;;;;;4976627;28;20216;-63
2023/08/28 07:28:12;;;;;;;5.60;4.00;;;;;;;;;;4978486;28;20255;-65
2023/08/28 07:30:38;;;;;;;4.55;4.20;;;;;;;;;;4977536;28;20265;-65
2023/08/28 07:33:05;;;;;;;6.28;4.18;;;;;;;;;;4981526;28;20211;-66
2023/08/28 07:35:34;;;;;;;4.25;3.95;;;;;;;;;;4976095;28;20671;-66
2023/08/28 07:38:02;;;;;;;4.93;3.90;;;;;;;;;;4971179;28;20211;-66
2023/08/28 07:40:28;;;;;;;4.20;3.90;;;;;;;;;;4978273;28;20227;-65
2023/08/28 07:42:56;;;;;;;4.40;4.00;;;;;;;;;;4980152;28;20219;-65
2023/08/28 07:45:22;;;;;;;4.65;3.72;;;;;;;;;;4973353;28;20330;-64
2023/08/28 07:47:49;;;;;;;7.18;3.75;;;;;;;;;;4979207;28;20735;-64
2023/08/28 07:50:15;;;;;;;4.18;3.80;;;;;;;;;;4980039;28;20219;-64
2023/08/28 07:52:41;;;;;;;4.07;3.60;;;;;;;;;;4981238;28;20238;-65
2023/08/28 07:55:08;;;;;;;6.80;3.85;;;;;;;;;;4943063;28;1020877;-66
2023/08/28 07:57:34;;;;;;;3.33;3.10;;;;;;;;;;4980188;28;20595;-66
2023/08/28 08:00:05;;;;;;;3.78;3.33;;;;;;;;;;4978224;28;20211;-64
2023/08/28 08:02:32;;;;;;;3.60;3.28;;;;;;;;;;4978107;28;20318;-64
2023/08/28 08:04:58;;;;;;;5.97;3.00;;;;;;;;;;4974950;28;20223;-65
2023/08/28 08:07:24;;;;;;;3.35;3.03;;;;;;;;;;4978111;28;20223;-64
2023/08/28 08:09:50;;;;;;;2.60;2.50;;;;;;;;;;4978878;28;20211;-64
2023/08/28 08:12:17;;;;;;;3.25;3.10;;;;;;;;;;4981375;28;20239;-64
2023/08/28 08:14:43;;;;;;;3.40;3.20;;;;;;;;;;4971254;28;20219;-66
2023/08/28 08:17:10;;;;;;;3.13;2.92;;;;;;;;;;4978340;28;20211;-65
2023/08/28 08:19:37;;;;;;;6.07;2.90;;;;;;;;;;4974777;28;20207;-66
2023/08/28 08:22:04;;;;;;;2.72;2.63;;;;;;;;;;4980749;28;20223;-65
2023/08/28 08:24:30;;;;;;;4.57;3.53;;;;;;;;;;4982197;28;20298;-65
2023/08/28 08:26:57;;;;;;;4.45;3.08;;;;;;;;;;4978239;28;20576;-65
2023/08/28 08:29:23;;;;;;;5.25;2.97;;;;;;;;;;4976942;28;20214;-65
2023/08/28 08:31:50;;;;;;;3.47;3.03;;;;;;;;;;4971249;28;20700;-65
2023/08/28 08:34:19;;;;;;;2.97;2.78;;;;;;;;;;4969309;28;20208;-64
2023/08/28 08:36:45;;;;;;;3.55;2.90;;;;;;;;;;4979298;28;20318;-65
2023/08/28 08:39:11;;;;;;;2.75;2.65;;;;;;;;;;4977133;28;20210;-64
2023/08/28 08:41:39;;;;;;;2.72;2.65;;;;;;;;;;4977545;28;20578;-65
2023/08/28 08:44:06;;;;;;;3.88;2.63;;;;;;;;;;4978900;28;20222;-64
2023/08/28 08:46:32;;;;;;;2.55;2.42;;;;;;;;;;4970378;28;20652;-64
2023/08/28 08:49:00;;;;;;;4.40;2.78;;;;;;;;;;4974727;28;20203;-64
2023/08/28 08:51:30;;;;;;;2.95;2.70;;;;;;;;;;4971761;28;20229;-65
2023/08/28 08:53:59;;;;;;;3.28;2.60;;;;;;;;;;4970247;28;20681;-65
2023/08/28 08:56:28;;;;;;;2.78;2.58;;;;;;;;;;4974227;28;20211;-64
2023/08/28 08:58:55;;;;;;;2.50;2.40;;;;;;;;;;4975703;28;20215;-65
2023/08/28 09:01:21;;;;;;;4.13;2.72;;;;;;;;;;4973273;28;20751;-66
2023/08/28 09:03:48;;;;;;;2.70;2.60;;;;;;;;;;4974792;28;20212;-64
2023/08/28 09:06:15;;;;;;;2.53;2.30;;;;;;;;;;4974395;28;20208;-64
2023/08/28 09:08:43;;;;;;;2.13;2.13;;;;;;;;;;4976835;28;20219;-64
2023/08/28 09:11:09;;;;;;;2.42;2.13;;;;;;;;;;4980003;28;20747;-65
2023/08/28 09:13:36;;;;;;;3.00;2.58;;;;;;;;;;4981486;28;20211;-66
2023/08/28 09:16:03;;;;;;;2.47;2.38;;;;;;;;;;4979090;28;20742;-67
2023/08/28 09:18:30;;;;;;;2.35;2.25;;;;;;;;;;4980144;28;20205;-64
2023/08/28 09:21:06;;;;;;;2.75;2.00;;;;;;;;;;4974602;28;20730;-65
2023/08/28 09:23:32;;;;;;;2.30;2.10;;;;;;;;;;4965647;28;20728;-64
2023/08/28 09:26:00;;;;;;;2.72;2.00;;;;;;;;;;4982342;28;20529;-65
2023/08/28 09:28:27;;;;;;;2.00;1.90;;;;;;;;;;4980726;28;20230;-65
2023/08/28 09:30:53;;;;;;;2.67;2.45;;;;;;;;;;4975224;28;20660;-64
2023/08/28 09:33:20;;;;;;;2.95;2.03;;;;;;;;;;4982993;28;20215;-65
2023/08/28 09:35:46;;;;;;;2.35;2.08;;;;;;;;;;4980609;28;20211;-64
2023/08/28 09:38:13;;;;;;;2.40;2.20;;;;;;;;;;4973916;28;20234;-65
2023/08/28 09:40:40;;;;;;;5.55;2.08;;;;;;;;;;4982927;28;20330;-64
2023/08/28 09:43:12;;;;;;;2.28;2.00;;;;;;;;;;4985032;28;20235;-65
2023/08/28 09:45:38;;;;;;;2.08;1.83;;;;;;;;;;4975318;28;20216;-65
2023/08/28 09:48:05;;;;;;;2.13;1.83;;;;;;;;;;4980605;28;20221;-64
2023/08/28 09:50:32;;;;;;;4.32;1.90;;;;;;;;;;4974359;28;20207;-66
2023/08/28 09:53:05;;;;;;;2.03;1.80;;;;;;;;;;4985036;28;20214;-65
2023/08/28 09:55:32;;;;;;;2.10;1.88;;;;;;;;;;4978668;28;20922;-65
2023/08/28 09:57:58;;;;;;;3.42;1.90;;;;;;;;;;4984966;28;20237;-65
2023/08/28 10:00:26;;;;;;;3.67;2.05;;;;;;;;;;4976858;28;20262;-66
2023/08/28 10:02:52;;;;;;;1.70;1.70;;;;;;;;;;4979505;28;20207;-67
2023/08/28 10:05:19;;;;;;;2.10;1.90;;;;;;;;;;4974863;28;20211;-65
2023/08/28 10:07:46;;;;;;;2.05;1.63;;;;;;;;;;4972637;28;20220;-65
2023/08/28 10:10:15;;;;;;;4.47;1.88;;;;;;;;;;4979724;28;20207;-65
2023/08/28 10:12:41;;;;;;;6.50;1.40;;;;;;;;;;4977811;28;20314;-65
2023/08/28 10:15:08;;;;;;;1.33;1.25;;;;;;;;;;4979721;28;20298;-65
2023/08/28 10:17:36;;;;;;;1.40;1.40;;;;;;;;;;4980689;28;20200;-64
2023/08/28 10:20:03;;;;;;;2.17;1.65;;;;;;;;;;4979429;28;20212;-64
2023/08/28 10:22:31;;;;;;;2.75;1.55;;;;;;;;;;4975511;28;20803;-64
2023/08/28 10:24:58;;;;;;;2.38;1.60;;;;;;;;;;4977559;28;20215;-65
2023/08/28 10:27:24;;;;;;;1.38;1.27;;;;;;;;;;4979437;28;20597;-65
2023/08/28 10:29:52;;;;;;;1.50;1.20;;;;;;;;;;4975911;28;20681;-65
2023/08/28 10:32:19;;;;;;;1.95;1.48;;;;;;;;;;4984419;28;20219;-65
2023/08/28 10:34:47;;;;;;;2.42;1.17;;;;;;;;;;4977618;28;20582;-65
2023/08/28 10:37:14;;;;;;;2.55;1.20;;;;;;;;;;4977030;28;20203;-65
2023/08/28 10:39:41;;;;;;;1.70;1.60;;;;;;;;;;4984635;28;20239;-65
2023/08/28 10:42:09;;;;;;;1.95;1.23;;;;;;;;;;4975957;28;21158;-64
2023/08/28 10:44:36;;;;;;;1.60;1.50;;;;;;;;;;4982930;28;20215;-64
2023/08/28 10:47:02;;;;;;;1.10;1.10;;;;;;;;;;4977803;28;20653;-64
2023/08/28 10:49:28;;;;;;;1.40;1.40;;;;;;;;;;4975347;28;20212;-65
2023/08/28 10:52:02;;;;;;;2.08;1.20;;;;;;;;;;4977107;28;20242;-65
2023/08/28 10:54:35;;;;;;;3.53;1.50;;;;;;;;;;4971174;28;20208;-65
2023/08/28 10:57:05;;;;;;;1.40;1.33;;;;;;;;;;4980033;28;20646;-64
2023/08/28 10:59:41;;;;;;;1.65;1.55;;;;;;;;;;4982002;28;20235;-64
2023/08/28 11:02:09;;;;;;;1.40;1.30;;;;;;;;;;4981210;28;20243;-64
2023/08/28 11:04:36;;;;;;;2.28;1.48;;;;;;;;;;4980200;28;20713;-65
2023/08/28 11:07:04;;;;;;;3.70;1.35;;;;;;;;;;4978035;28;20739;-63
2023/08/28 11:09:33;;;;;;;1.90;1.70;;;;;;;;;;4976627;28;20879;-65
2023/08/28 11:12:18;;;;;;;2.25;1.40;;;;;;;;;;4983825;28;20282;-65
2023/08/28 11:14:57;;;;;;;2.03;1.50;;;;;;;;;;4982857;28;20680;-64
2023/08/28 11:17:25;;;;;;;1.92;1.42;;;;;;;;;;4972015;28;20209;-65
2023/08/28 11:20:04;;;;;;;2.75;1.52;;;;;;;;;;4979002;28;20222;-64
2023/08/28 11:22:32;;;;;;;1.42;1.33;;;;;;;;;;4980669;28;20232;-65
2023/08/28 11:24:59;;;;;;;2.47;1.42;;;;;;;;;;4976493;28;20223;-64
2023/08/28 11:27:31;;;;;;;1.15;1.13;;;;;;;;;;4983039;28;20211;-63
2023/08/28 11:29:57;;;;;;;1.17;1.17;;;;;;;;;;4978272;28;20219;-64
2023/08/28 11:32:24;;;;;;;1.40;1.25;;;;;;;;;;4975686;28;20223;-66
2023/08/28 11:34:51;;;;;;;2.42;1.30;;;;;;;;;;4974559;28;20456;-62
2023/08/28 11:37:29;;;;;;;1.60;1.35;;;;;;;;;;4983358;28;20303;-66
2023/08/28 11:39:56;;;;;;;1.88;1.23;;;;;;;;;;4983329;28;20219;-64
2023/08/28 11:42:24;;;;;;;1.40;1.30;;;;;;;;;;4978942;28;20266;-63
2023/08/28 11:44:51;;;;;;;1.10;1.10;;;;;;;;;;4979005;28;20211;-65
2023/08/28 11:47:23;;;;;;;1.05;1.00;;;;;;;;;;4977711;28;20207;-63
2023/08/28 11:49:49;;;;;;;1.73;1.35;;;;;;;;;;4978897;28;20214;-64
2023/08/28 11:52:16;;;;;;;1.30;1.20;;;;;;;;;;4976198;28;20224;-64
2023/08/28 11:54:42;;;;;;;4.05;1.05;;;;;;;;;;4975077;28;20235;-65
2023/08/28 11:57:10;;;;;;;1.02;1.02;;;;;;;;;;4970843;28;20223;-64
2023/08/28 11:59:38;;;;;;;1.08;1.08;;;;;;;;;;4980202;28;20528;-64
2023/08/28 12:02:04;;;;;;;1.13;1.02;;;;;;;;;;4980763;28;20230;-66
2023/08/28 12:04:36;;;;;;;1.13;1.13;;;;;;;;;;4977868;28;20314;-63
2023/08/28 12:07:02;;;;;;;1.25;0.70;;;;;;;;;;4979318;28;20238;-63
2023/08/28 12:09:28;;;;;;;0.73;0.70;;;;;;;;;;4974127;28;20226;-62
2023/08/28 12:11:55;;;;;;;1.08;0.90;;;;;;;;;;4973094;28;20231;-63
2023/08/28 12:14:24;;;;;;;3.17;1.00;;;;;;;;;;4973020;28;20215;-63
2023/08/28 12:16:50;;;;;;;1.00;0.90;;;;;;;;;;4974551;28;20218;-64
2023/08/28 12:19:20;;;;;;;1.00;1.00;;;;;;;;;;4970079;28;20211;-63
2023/08/28 12:21:47;;;;;;;0.80;0.80;;;;;;;;;;4974266;28;20631;-63
2023/08/28 12:24:13;;;;;;;1.02;0.70;;;;;;;;;;4981260;28;20208;-63
2023/08/28 12:26:41;;;;;;;1.13;0.93;;;;;;;;;;4980023;28;20210;-63
2023/08/28 12:29:08;;;;;;;1.40;0.70;;;;;;;;;;4978442;28;21144;-63
2023/08/28 12:31:36;;;;;;;2.00;0.70;;;;;;;;;;4977994;28;20575;-64
2023/08/28 12:34:06;;;;;;;0.70;0.63;;;;;;;;;;4977946;28;20574;-64
2023/08/28 12:36:36;;;;;;;1.65;0.85;;;;;;;;;;4982138;28;20219;-65
2023/08/28 12:39:03;;;;;;;0.65;0.65;;;;;;;;;;4974934;28;20208;-64
2023/08/28 12:41:33;;;;;;;0.70;0.63;;;;;;;;;;4981304;28;20314;-64
2023/08/28 12:43:59;;;;;;;1.17;0.80;;;;;;;;;;4974224;28;20212;-64
2023/08/28 12:46:25;;;;;;;1.10;0.75;;;;;;;;;;4973762;28;20262;-64
2023/08/28 12:48:54;;;;;;;0.70;0.70;;;;;;;;;;4978572;28;20223;-64
2023/08/28 12:51:21;;;;;;;3.10;0.55;;;;;;;;;;4976570;28;20234;-64
2023/08/28 12:53:47;;;;;;;1.63;0.80;;;;;;;;;;4977878;28;20626;-63
2023/08/28 12:56:16;;;;;;;0.85;0.77;;;;;;;;;;4972626;28;20223;-64
2023/08/28 12:58:42;;;;;;;1.70;0.88;;;;;;;;;;4974413;28;20659;-64
2023/08/28 13:01:09;;;;;;;1.27;0.80;;;;;;;;;;4977352;28;20234;-65
2023/08/28 13:03:36;;;;;;;0.70;0.70;;;;;;;;;;4980618;28;20199;-64
2023/08/28 13:06:03;;;;;;;1.70;1.00;;;;;;;;;;4979388;28;20207;-64
2023/08/28 13:08:30;;;;;;;0.80;0.80;;;;;;;;;;4977365;28;20222;-64
2023/08/28 13:10:56;;;;;;;1.45;0.80;;;;;;;;;;4977574;28;20234;-64
2023/08/28 13:13:24;;;;;;;0.90;0.90;;;;;;;;;;4982491;28;20763;-64
2023/08/28 13:15:50;;;;;;;1.02;0.70;;;;;;;;;;4972850;28;20211;-64
2023/08/28 13:18:16;;;;;;;0.70;0.70;;;;;;;;;;4982446;28;20207;-65
2023/08/28 13:20:43;;;;;;;1.80;0.80;;;;;;;;;;4973959;28;20208;-63
2023/08/28 13:23:10;;;;;;;2.33;0.90;;;;;;;;;;4975877;28;20222;-63
2023/08/28 13:25:36;;;;;;;0.70;0.70;;;;;;;;;;4973991;28;20746;-63
2023/08/28 13:28:03;;;;;;;1.33;0.90;;;;;;;;;;4975905;28;20242;-64
2023/08/28 13:30:29;;;;;;;0.73;0.73;;;;;;;;;;4969377;28;20214;-63
2023/08/28 13:32:56;;;;;;;1.13;0.60;;;;;;;;;;4978372;28;20216;-62
2023/08/28 13:35:22;;;;;;;1.35;0.77;;;;;;;;;;4976823;28;20207;-64
2023/08/28 13:37:48;;;;;;;2.15;1.00;;;;;;;;;;4981927;28;20211;-63
2023/08/28 13:40:16;;;;;;;3.65;0.80;;;;;;;;;;4976700;28;20208;-64
2023/08/28 13:42:42;;;;;;;0.80;0.80;;;;;;;;;;4973176;28;20235;-64
2023/08/28 13:45:10;;;;;;;1.35;0.95;;;;;;;;;;4981810;28;20218;-64
2023/08/28 13:47:36;;;;;;;3.90;0.70;;;;;;;;;;4982931;28;20885;-63
2023/08/28 13:50:03;;;;;;;0.70;0.70;;;;;;;;;;4977053;28;20233;-64
2023/08/28 13:52:30;;;;;;;0.57;0.57;;;;;;;;;;4976400;28;20258;-63
2023/08/28 13:55:04;;;;;;;0.73;0.73;;;;;;;;;;4977086;28;20650;-64
2023/08/28 13:57:31;;;;;;;4.13;1.08;;;;;;;;;;4976404;28;20218;-65
2023/08/28 13:59:59;;;;;;;2.60;1.00;;;;;;;;;;4978317;28;20283;-65
2023/08/28 14:02:25;;;;;;;2.38;0.80;;;;;;;;;;4981472;28;20668;-66
2023/08/28 14:04:51;;;;;;;0.80;0.80;;;;;;;;;;4980750;28;20222;-64
2023/08/28 14:07:17;;;;;;;0.70;0.70;;;;;;;;;;4986931;28;20214;-63
2023/08/28 14:09:44;;;;;;;0.50;0.50;;;;;;;;;;4976621;28;20220;-62
2023/08/28 14:12:13;;;;;;;0.60;0.60;;;;;;;;;;4984051;28;20230;-61
2023/08/28 14:14:40;;;;;;;0.85;0.80;;;;;;;;;;4981061;28;20203;-61
2023/08/28 14:17:07;;;;;;;0.90;0.90;;;;;;;;;;4992165;28;20211;-61
2023/08/28 14:19:33;;;;;;;2.13;0.85;;;;;;;;;;4984228;28;20200;-62
2023/08/28 14:21:59;;;;;;;1.13;0.95;;;;;;;;;;4983873;28;20240;-61
2023/08/28 14:24:26;;;;;;;2.30;0.80;;;;;;;;;;4986164;28;20214;-63
2023/08/28 14:26:52;;;;;;;0.80;0.80;;;;;;;;;;4981197;28;20212;-63
2023/08/28 14:29:18;;;;;;;1.45;0.70;;;;;;;;;;4991719;28;20215;-63
2023/08/28 14:31:46;;;;;;;0.60;0.60;;;;;;;;;;4982873;28;20230;-63
2023/08/28 14:34:12;;;;;;;1.65;0.70;;;;;;;;;;4983766;28;20204;-63
2023/08/28 14:36:38;;;;;;;0.70;0.70;;;;;;;;;;4986749;28;20199;-63
2023/08/28 14:39:05;;;;;;;0.52;0.52;;;;;;;;;;4986919;28;20659;-63
2023/08/28 14:41:31;;;;;;;0.60;0.60;;;;;;;;;;4983695;28;20223;-63